Time;durP1;ratioP1;P1;durP2;ratioP2;P2;SDS_P1;SDS_P2;PMS_P1;PMS_P2;Temp;Humidity;BMP_temperature;BMP_pressure;BME280_temperature;BME280_humidity;BME280_pressure;Samples;Min_cycle;Max_cycle;Signal;HPM_P1;HPM_P2
2021/04/28 00:02:03;;;;;;;4.43;3.90;;;12.70;17.20;;;;;;10414024;28;20228;-72
2021/04/28 00:07:05;;;;;;;3.83;3.53;;;12.60;17.30;;;;;;10390661;28;20642;-72
2021/04/28 00:12:09;;;;;;;3.97;3.47;;;12.50;17.20;;;;;;10412546;28;20225;-72
2021/04/28 00:17:13;;;;;;;4.30;3.90;;;12.40;17.30;;;;;;10423944;28;20305;-72
2021/04/28 00:22:15;;;;;;;4.10;3.70;;;12.30;17.50;;;;;;10416525;28;20236;-72
2021/04/28 00:27:17;;;;;;;4.27;3.70;;;12.20;17.40;;;;;;10408239;28;20863;-72
2021/04/28 00:32:31;;;;;;;5.47;4.00;;;12.10;17.50;;;;;;10414914;28;20237;-71
2021/04/28 00:37:34;;;;;;;5.90;4.27;;;12.00;17.80;;;;;;10394262;28;20305;-72
2021/04/28 00:42:36;;;;;;;10.00;4.67;;;11.90;17.80;;;;;;10423433;28;20283;-72
2021/04/28 00:47:39;;;;;;;4.47;4.03;;;11.80;18.10;;;;;;10420855;28;20601;-72
2021/04/28 00:52:42;;;;;;;5.20;4.20;;;11.70;18.10;;;;;;10408766;28;20221;-72
2021/04/28 00:57:45;;;;;;;6.43;4.27;;;11.60;18.10;;;;;;10417321;28;20509;-72
2021/04/28 01:02:48;;;;;;;5.23;4.60;;;11.60;18.10;;;;;;10416327;28;20643;-72
2021/04/28 01:07:51;;;;;;;3.73;3.40;;;11.50;18.40;;;;;;10414974;28;20252;-72
2021/04/28 01:12:54;;;;;;;4.80;4.40;;;11.40;18.20;;;;;;10406494;28;20252;-72
2021/04/28 01:17:58;;;;;;;5.07;4.40;;;11.40;18.50;;;;;;10394248;28;20633;-72
2021/04/28 01:23:01;;;;;;;4.60;4.10;;;11.30;18.70;;;;;;10413922;28;20295;-72
2021/04/28 01:28:06;;;;;;;4.13;3.80;;;11.20;18.70;;;;;;10418009;28;20275;-72
2021/04/28 01:33:13;;;;;;;4.63;4.07;;;11.20;19.50;;;;;;10393510;28;20225;-72
2021/04/28 01:38:16;;;;;;;6.07;4.90;;;11.10;19.30;;;;;;10411832;28;20229;-72
2021/04/28 01:43:19;;;;;;;5.30;4.80;;;11.00;19.20;;;;;;10414576;28;20329;-72
2021/04/28 01:48:22;;;;;;;4.97;4.37;;;11.00;19.20;;;;;;10413547;28;20277;-72
2021/04/28 01:53:26;;;;;;;5.57;5.00;;;10.90;19.20;;;;;;10409841;28;20224;-72
2021/04/28 01:58:29;;;;;;;5.47;4.33;;;10.80;19.10;;;;;;10399249;28;20265;-72
2021/04/28 02:03:32;;;;;;;4.60;3.63;;;10.80;19.10;;;;;;10413694;28;20321;-72
2021/04/28 02:08:35;;;;;;;4.43;4.03;;;10.70;19.00;;;;;;10404518;28;20230;-72
2021/04/28 02:13:42;;;;;;;4.80;4.30;;;10.60;19.00;;;;;;10405053;28;20689;-72
2021/04/28 02:18:45;;;;;;;4.37;3.97;;;10.50;19.00;;;;;;10415562;28;20256;-72
2021/04/28 02:23:49;;;;;;;4.53;4.13;;;10.50;18.90;;;;;;10417295;28;20329;-72
2021/04/28 02:28:51;;;;;;;5.10;4.07;;;10.40;18.90;;;;;;10405527;28;20258;-71
2021/04/28 02:33:53;;;;;;;5.07;4.50;;;10.40;18.80;;;;;;10390545;28;20249;-72
2021/04/28 02:39:01;;;;;;;4.90;4.00;;;10.30;18.90;;;;;;10424820;28;20244;-72
2021/04/28 02:44:04;;;;;;;4.30;3.90;;;10.30;19.90;;;;;;10393916;28;20287;-71
2021/04/28 02:49:08;;;;;;;4.43;4.00;;;10.20;19.40;;;;;;10413777;28;20320;-72
2021/04/28 02:54:12;;;;;;;4.63;3.83;;;10.20;19.30;;;;;;10411079;28;20641;-72
2021/04/28 02:59:15;;;;;;;5.70;4.10;;;10.10;19.60;;;;;;10409899;28;20249;-72
2021/04/28 03:04:19;;;;;;;6.13;4.70;;;10.00;19.30;;;;;;10421295;28;20264;-71
2021/04/28 03:09:22;;;;;;;3.97;3.63;;;10.00;19.60;;;;;;10411186;28;20676;-72
2021/04/28 03:14:24;;;;;;;5.30;4.30;;;9.90;20.20;;;;;;10412300;28;20248;-72
2021/04/28 03:19:27;;;;;;;6.07;3.83;;;9.90;20.30;;;;;;10412305;28;20269;-72
2021/04/28 03:24:32;;;;;;;7.63;4.90;;;9.80;20.30;;;;;;10411933;28;20233;-72
2021/04/28 03:29:34;;;;;;;6.97;4.40;;;9.70;20.50;;;;;;10418750;28;20249;-72
2021/04/28 03:34:37;;;;;;;5.97;5.10;;;9.60;20.40;;;;;;10407863;28;20244;-72
2021/04/28 03:39:41;;;;;;;6.07;4.80;;;9.50;20.80;;;;;;10413868;28;20275;-71
2021/04/28 03:44:43;;;;;;;4.77;4.30;;;9.40;20.90;;;;;;10407435;28;20681;-72
2021/04/28 03:49:45;;;;;;;5.40;4.37;;;9.30;20.60;;;;;;10412048;28;20733;-71
2021/04/28 03:54:49;;;;;;;5.53;4.13;;;9.20;20.70;;;;;;10415043;28;20641;-71
2021/04/28 03:59:52;;;;;;;5.80;4.20;;;9.20;20.90;;;;;;10405022;28;20655;-71
2021/04/28 04:04:54;;;;;;;4.50;4.10;;;9.10;20.80;;;;;;10412736;28;20324;-71
2021/04/28 04:09:57;;;;;;;4.77;4.37;;;9.10;20.90;;;;;;10414987;28;20221;-71
2021/04/28 04:14:59;;;;;;;4.50;4.10;;;9.00;21.00;;;;;;10417668;28;20225;-71
2021/04/28 04:20:01;;;;;;;4.37;3.97;;;9.00;20.90;;;;;;10414301;28;20309;-71
2021/04/28 04:25:06;;;;;;;6.67;3.97;;;9.00;21.00;;;;;;10403505;28;20753;-72
2021/04/28 04:30:10;;;;;;;5.83;4.67;;;9.00;21.30;;;;;;10409747;28;20314;-72
2021/04/28 04:35:13;;;;;;;6.00;5.23;;;8.90;21.40;;;;;;10423862;28;20636;-71
2021/04/28 04:40:17;;;;;;;4.70;4.30;;;8.90;21.30;;;;;;10416443;28;20252;-71
2021/04/28 04:45:19;;;;;;;5.77;4.67;;;8.90;21.80;;;;;;10412324;28;20257;-71
2021/04/28 04:50:21;;;;;;;5.40;4.60;;;8.90;21.60;;;;;;10415858;28;20287;-71
2021/04/28 04:55:24;;;;;;;8.67;5.40;;;8.90;21.60;;;;;;10432002;28;20249;-72
2021/04/28 05:00:27;;;;;;;6.83;5.90;;;8.90;21.90;;;;;;10417536;28;20745;-71
2021/04/28 05:05:32;;;;;;;8.73;6.67;;;8.90;21.80;;;;;;10403839;28;20253;-72
2021/04/28 05:10:35;;;;;;;8.50;7.23;;;9.00;22.00;;;;;;10413649;28;20234;-72
2021/04/28 05:15:37;;;;;;;9.07;8.17;;;9.00;22.40;;;;;;10409890;28;20757;-72
2021/04/28 05:20:39;;;;;;;9.07;7.73;;;9.00;22.30;;;;;;10411975;28;20233;-72
2021/04/28 05:25:42;;;;;;;9.83;8.40;;;9.00;22.30;;;;;;10402837;28;20233;-72
2021/04/28 05:30:45;;;;;;;8.00;7.20;;;9.00;22.70;;;;;;10410624;28;20250;-72
2021/04/28 05:35:47;;;;;;;9.03;8.13;;;9.10;22.60;;;;;;10408459;28;20312;-72
2021/04/28 05:40:50;;;;;;;9.50;8.00;;;9.10;22.90;;;;;;10410343;28;20317;-71
2021/04/28 05:45:53;;;;;;;8.47;7.57;;;9.20;23.30;;;;;;10416402;28;20312;-72
2021/04/28 05:50:55;;;;;;;8.23;7.43;;;9.30;23.30;;;;;;10413793;28;20252;-72
2021/04/28 05:56:02;;;;;;;7.87;6.77;;;9.40;23.30;;;;;;10399893;28;20645;-71
2021/04/28 06:01:05;;;;;;;8.00;6.63;;;9.40;24.10;;;;;;10398507;28;20218;-72
2021/04/28 06:06:08;;;;;;;7.17;6.43;;;9.60;24.10;;;;;;10400992;28;20254;-72
2021/04/28 06:11:11;;;;;;;6.90;6.30;;;9.60;23.60;;;;;;10391356;28;20260;-72
2021/04/28 06:16:14;;;;;;;7.23;6.57;;;9.70;23.80;;;;;;10413938;28;20480;-72
2021/04/28 06:21:20;;;;;;;8.80;7.03;;;9.80;23.80;;;;;;10414329;28;20225;-72
2021/04/28 06:26:24;;;;;;;6.93;6.20;;;9.90;24.10;;;;;;10427071;28;20740;-73
2021/04/28 06:31:26;;;;;;;6.87;6.17;;;10.00;23.60;;;;;;10397290;28;20288;-73
2021/04/28 06:36:28;;;;;;;8.00;7.20;;;10.20;23.70;;;;;;10393210;28;20734;-73
2021/04/28 06:41:32;;;;;;;9.17;6.87;;;10.30;23.90;;;;;;10403851;28;20332;-73
2021/04/28 06:46:34;;;;;;;10.13;7.17;;;10.50;24.50;;;;;;10407014;28;20229;-73
2021/04/28 06:51:36;;;;;;;8.83;6.93;;;10.60;24.10;;;;;;10390055;28;20221;-73
2021/04/28 06:56:42;;;;;;;6.93;6.17;;;10.80;24.30;;;;;;10398596;28;20264;-73
2021/04/28 07:01:48;;;;;;;6.63;6.07;;;11.00;24.60;;;;;;10399053;28;20313;-73
2021/04/28 07:06:51;;;;;;;7.20;6.03;;;11.20;24.50;;;;;;10404827;28;20233;-73
2021/04/28 07:11:54;;;;;;;7.07;6.10;;;11.40;24.40;;;;;;10398713;28;20263;-73
2021/04/28 07:16:57;;;;;;;7.10;6.37;;;11.60;24.80;;;;;;10395623;28;20774;-73
2021/04/28 07:21:59;;;;;;;6.97;6.23;;;11.80;24.50;;;;;;10409862;28;20231;-73
2021/04/28 07:27:03;;;;;;;10.00;6.87;;;12.10;24.60;;;;;;10402138;28;20237;-72
2021/04/28 07:32:06;;;;;;;6.73;6.13;;;12.30;24.90;;;;;;10405069;28;20224;-72
2021/04/28 07:37:08;;;;;;;8.20;6.77;;;12.60;24.60;;;;;;10411836;28;20257;-72
2021/04/28 07:42:12;;;;;;;7.10;6.40;;;12.90;24.70;;;;;;10413750;28;20597;-75
2021/04/28 07:47:14;;;;;;;6.60;6.00;;;13.10;24.80;;;;;;10429587;28;20244;-73
2021/04/28 07:52:16;;;;;;;7.43;6.03;;;13.40;24.80;;;;;;10403120;28;20220;-73
2021/04/28 07:57:20;;;;;;;6.60;6.00;;;13.70;24.80;;;;;;10414752;28;20740;-73
2021/04/28 08:02:22;;;;;;;6.83;6.23;;;14.00;24.80;;;;;;10411053;28;20322;-73
2021/04/28 08:07:24;;;;;;;6.93;6.03;;;14.40;24.70;;;;;;10406921;28;20697;-73
2021/04/28 08:12:27;;;;;;;6.80;6.00;;;14.70;24.60;;;;;;10424121;28;20760;-73
2021/04/28 08:17:31;;;;;;;5.93;5.40;;;15.00;24.60;;;;;;10405031;28;20312;-74
2021/04/28 08:22:33;;;;;;;6.10;5.60;;;15.30;24.50;;;;;;10405962;28;20272;-73
2021/04/28 08:27:37;;;;;;;6.37;5.77;;;15.60;24.40;;;;;;10409878;28;20549;-73
2021/04/28 08:32:40;;;;;;;5.93;5.43;;;15.90;24.50;;;;;;10403815;28;20310;-73
2021/04/28 08:37:44;;;;;;;5.73;5.23;;;16.10;24.30;;;;;;10402795;28;20236;-73
2021/04/28 08:42:48;;;;;;;6.03;5.60;;;16.40;24.10;;;;;;10400584;28;20296;-73
2021/04/28 08:47:50;;;;;;;6.97;6.27;;;16.70;23.80;;;;;;10403860;28;20257;-74
2021/04/28 08:52:54;;;;;;;6.60;6.00;;;17.00;23.50;;;;;;10407820;28;20323;-73
2021/04/28 08:57:57;;;;;;;6.47;5.97;;;17.30;23.50;;;;;;10401886;28;20313;-74
2021/04/28 09:03:00;;;;;;;6.57;5.83;;;17.50;23.60;;;;;;10404743;28;20221;-73
2021/04/28 09:08:09;;;;;;;6.30;5.80;;;17.70;23.80;;;;;;10399162;28;20699;-73
2021/04/28 09:13:18;;;;;;;7.10;5.80;;;18.00;23.60;;;;;;10402261;28;20215;-74
2021/04/28 09:18:35;;;;;;;6.00;5.50;;;18.20;23.30;;;;;;10398017;28;20249;-74
2021/04/28 09:23:38;;;;;;;7.00;6.30;;;18.50;23.40;;;;;;10405106;28;20676;-74
2021/04/28 09:28:50;;;;;;;6.27;5.67;;;18.70;23.20;;;;;;10404486;28;20260;-74
2021/04/28 09:33:54;;;;;;;6.17;5.67;;;18.80;22.90;;;;;;10407352;28;20316;-74
2021/04/28 09:39:01;;;;;;;6.50;5.93;;;19.10;22.30;;;;;;10409970;28;20231;-74
2021/04/28 09:44:23;;;;;;;7.10;5.90;;;19.40;22.10;;;;;;10403870;28;20998;-73
2021/04/28 09:49:27;;;;;;;5.17;4.67;;;19.60;21.90;;;;;;10396506;28;20751;-74
2021/04/28 09:54:31;;;;;;;6.27;5.27;;;19.80;21.50;;;;;;10398441;28;20222;-73
2021/04/28 09:59:48;;;;;;;6.50;5.90;;;20.10;21.50;;;;;;10396472;28;20664;-74
2021/04/28 10:04:51;;;;;;;5.70;5.10;;;20.30;20.40;;;;;;10409455;28;20735;-74
2021/04/28 10:09:54;;;;;;;6.90;4.57;;;20.40;20.70;;;;;;10404283;28;20229;-75
2021/04/28 10:14:57;;;;;;;4.70;4.30;;;20.60;20.40;;;;;;10392023;28;20276;-75
2021/04/28 10:19:59;;;;;;;5.47;5.07;;;20.80;20.10;;;;;;10396432;28;20338;-75
2021/04/28 10:25:07;;;;;;;5.90;5.40;;;21.10;20.40;;;;;;10405250;28;20592;-72
2021/04/28 10:30:16;;;;;;;6.10;5.60;;;21.20;19.50;;;;;;10406286;28;20312;-72
2021/04/28 10:35:20;;;;;;;5.83;5.23;;;21.40;19.20;;;;;;10395388;28;20251;-72
2021/04/28 10:40:24;;;;;;;6.30;5.73;;;21.60;19.50;;;;;;10405755;28;20233;-72
2021/04/28 10:45:37;;;;;;;6.63;5.87;;;21.70;19.40;;;;;;10385270;28;20664;-72
2021/04/28 10:50:42;;;;;;;6.70;6.10;;;21.70;18.80;;;;;;10365971;28;20261;-74
2021/04/28 10:55:56;;;;;;;7.33;6.63;;;21.80;18.90;;;;;;10365197;28;20234;-71
2021/04/28 11:01:17;;;;;;;6.93;6.33;;;21.80;17.10;;;;;;10364635;28;20222;-71
2021/04/28 11:06:42;;;;;;;6.80;6.20;;;21.70;17.80;;;;;;10370812;28;20221;-71
2021/04/28 11:11:48;;;;;;;6.40;5.80;;;21.70;18.50;;;;;;10407552;28;20279;-72
2021/04/28 11:16:53;;;;;;;6.90;6.23;;;21.70;18.70;;;;;;10408140;28;20229;-72
2021/04/28 11:22:13;;;;;;;7.40;6.60;;;21.80;18.70;;;;;;10409441;28;20962;-73
2021/04/28 11:27:41;;;;;;;7.23;6.63;;;22.00;18.70;;;;;;10409648;28;20229;-73
2021/04/28 11:33:08;;;;;;;6.77;6.17;;;22.20;18.70;;;;;;10410003;28;20241;-73
2021/04/28 11:38:13;;;;;;;7.00;6.30;;;22.50;18.50;;;;;;10408940;28;20251;-73
2021/04/28 11:43:18;;;;;;;7.73;6.93;;;22.60;18.30;;;;;;10407258;28;20265;-72
2021/04/28 11:48:25;;;;;;;7.33;6.63;;;22.70;17.60;;;;;;10406577;28;20271;-73
2021/04/28 11:53:28;;;;;;;8.60;7.70;;;22.90;18.30;;;;;;10408636;28;20244;-72
2021/04/28 11:58:33;;;;;;;8.60;7.77;;;23.00;17.60;;;;;;10408385;28;20638;-72
2021/04/28 12:03:58;;;;;;;7.30;6.60;;;23.10;17.20;;;;;;10409253;28;20229;-72
2021/04/28 12:09:16;;;;;;;7.57;6.80;;;23.00;17.20;;;;;;10411562;28;20317;-72
2021/04/28 12:14:24;;;;;;;8.70;7.57;;;23.10;18.10;;;;;;10416335;28;20245;-72
2021/04/28 12:19:29;;;;;;;7.67;6.97;;;23.20;16.20;;;;;;10416078;28;20254;-72
2021/04/28 12:24:33;;;;;;;7.07;6.40;;;23.20;16.80;;;;;;10415760;28;20233;-72
2021/04/28 12:29:36;;;;;;;8.50;7.67;;;23.30;17.10;;;;;;10415679;28;20257;-72
2021/04/28 12:34:41;;;;;;;9.60;7.27;;;23.30;16.90;;;;;;10415570;28;20341;-72
2021/04/28 12:39:49;;;;;;;6.73;6.13;;;23.30;16.10;;;;;;10415162;28;20236;-72
2021/04/28 12:44:55;;;;;;;7.73;7.03;;;23.30;16.20;;;;;;10413884;28;20229;-71
2021/04/28 12:50:11;;;;;;;8.00;7.10;;;23.30;16.50;;;;;;10411906;28;20287;-72
2021/04/28 12:55:24;;;;;;;7.70;7.00;;;23.40;16.40;;;;;;10414771;28;20213;-73
2021/04/28 13:00:30;;;;;;;7.80;7.10;;;23.40;16.00;;;;;;10414824;28;20230;-72
2021/04/28 13:05:35;;;;;;;6.93;6.30;;;23.50;16.50;;;;;;10414393;28;20253;-72
2021/04/28 13:10:37;;;;;;;7.00;6.40;;;23.50;16.20;;;;;;10414603;28;20667;-72
2021/04/28 13:15:40;;;;;;;9.17;7.07;;;23.40;16.40;;;;;;10414739;28;20308;-72
2021/04/28 13:20:44;;;;;;;7.80;6.90;;;23.40;15.90;;;;;;10414471;28;20304;-73
2021/04/28 13:25:53;;;;;;;7.00;6.40;;;23.40;15.80;;;;;;10414335;28;20245;-72
2021/04/28 13:31:14;;;;;;;7.33;6.63;;;23.30;15.40;;;;;;10414101;28;20253;-72
2021/04/28 13:36:26;;;;;;;7.50;6.77;;;23.20;15.40;;;;;;10413173;28;20304;-72
2021/04/28 13:41:28;;;;;;;7.50;6.87;;;23.30;15.40;;;;;;10413243;28;20296;-72
2021/04/28 13:46:31;;;;;;;6.40;5.90;;;23.30;16.10;;;;;;10413117;28;20249;-72
2021/04/28 13:51:37;;;;;;;7.10;6.40;;;23.30;15.90;;;;;;10413368;28;20255;-71
2021/04/28 13:56:39;;;;;;;6.40;5.80;;;23.40;15.70;;;;;;10413011;28;20253;-72
2021/04/28 14:01:41;;;;;;;5.77;5.27;;;23.50;15.80;;;;;;10412709;28;20221;-72
2021/04/28 14:06:45;;;;;;;5.97;5.47;;;23.60;15.80;;;;;;10412257;28;20225;-72
2021/04/28 14:11:47;;;;;;;5.87;5.27;;;23.70;15.40;;;;;;10412245;28;20284;-72
2021/04/28 14:16:50;;;;;;;7.00;5.23;;;23.80;15.40;;;;;;10411882;28;20256;-72
2021/04/28 14:21:54;;;;;;;6.27;5.67;;;23.90;15.50;;;;;;10411877;28;20281;-72
2021/04/28 14:26:56;;;;;;;5.27;4.77;;;23.90;15.00;;;;;;10411376;28;20257;-72
2021/04/28 14:31:59;;;;;;;6.40;5.53;;;23.80;15.20;;;;;;10410257;28;20245;-72
2021/04/28 14:37:02;;;;;;;7.17;6.47;;;23.80;15.30;;;;;;10410504;28;20229;-72
2021/04/28 14:42:06;;;;;;;7.47;6.40;;;23.70;14.40;;;;;;10410481;28;20249;-70
2021/04/28 14:47:08;;;;;;;6.30;5.70;;;23.60;14.50;;;;;;10410173;28;20268;-70
2021/04/28 14:52:11;;;;;;;6.37;5.43;;;23.50;14.90;;;;;;10410214;28;20229;-72
2021/04/28 14:57:13;;;;;;;8.87;6.10;;;23.40;15.10;;;;;;10410603;28;20275;-71
2021/04/28 15:02:15;;;;;;;6.07;5.33;;;23.30;14.80;;;;;;10410000;28;20233;-71
2021/04/28 15:07:19;;;;;;;6.00;5.37;;;23.30;14.90;;;;;;10409743;28;20309;-71
2021/04/28 15:12:21;;;;;;;6.17;5.33;;;23.20;14.50;;;;;;10410265;28;20238;-72
2021/04/28 15:17:23;;;;;;;6.70;5.43;;;23.10;14.50;;;;;;10409764;28;20721;-72
2021/04/28 15:22:26;;;;;;;5.90;5.40;;;23.10;14.70;;;;;;10409825;28;20280;-72
2021/04/28 15:27:29;;;;;;;5.80;4.87;;;23.00;14.70;;;;;;10408900;28;20229;-71
2021/04/28 15:32:31;;;;;;;6.00;5.43;;;23.00;14.90;;;;;;10409243;28;20279;-71
2021/04/28 15:37:34;;;;;;;6.73;5.60;;;23.00;15.00;;;;;;10408439;28;20738;-71
2021/04/28 15:42:38;;;;;;;5.07;4.57;;;23.00;14.70;;;;;;10411493;28;20288;-72
2021/04/28 15:47:41;;;;;;;5.50;5.00;;;23.00;14.70;;;;;;10417050;28;20260;-70
2021/04/28 15:52:44;;;;;;;6.50;5.10;;;23.10;14.80;;;;;;10417057;28;20218;-71
2021/04/28 15:57:46;;;;;;;6.00;5.30;;;23.10;14.80;;;;;;10416800;28;20253;-72
2021/04/28 16:02:48;;;;;;;5.67;5.07;;;23.00;14.60;;;;;;10416422;28;20662;-71
2021/04/28 16:07:51;;;;;;;6.20;5.00;;;23.00;14.50;;;;;;10416200;28;20257;-71
2021/04/28 16:12:54;;;;;;;6.37;5.77;;;23.00;14.60;;;;;;10416251;28;20268;-72
2021/04/28 16:17:56;;;;;;;5.73;5.20;;;23.00;14.60;;;;;;10416016;28;20284;-72
2021/04/28 16:22:59;;;;;;;6.60;6.00;;;23.00;14.80;;;;;;10415561;28;20685;-71
2021/04/28 16:28:01;;;;;;;5.80;5.20;;;23.00;14.50;;;;;;10415349;28;20898;-73
2021/04/28 16:33:04;;;;;;;5.60;5.10;;;23.00;15.00;;;;;;10414216;28;20225;-72
2021/04/28 16:38:07;;;;;;;5.13;4.63;;;23.00;15.00;;;;;;10415487;28;20234;-73
2021/04/28 16:43:10;;;;;;;5.10;4.47;;;23.00;14.90;;;;;;10415272;28;20229;-72
2021/04/28 16:48:12;;;;;;;4.77;4.37;;;23.00;15.10;;;;;;10415286;28;20314;-72
2021/04/28 16:53:15;;;;;;;4.90;4.47;;;23.00;15.10;;;;;;10415787;28;20218;-73
2021/04/28 16:58:17;;;;;;;4.87;4.20;;;23.00;14.70;;;;;;10406056;28;20283;-75
2021/04/28 17:03:25;;;;;;;4.57;4.17;;;23.00;15.00;;;;;;10407836;28;20233;-73
2021/04/28 17:08:28;;;;;;;4.93;4.20;;;23.00;15.20;;;;;;10409960;28;20230;-73
2021/04/28 17:13:30;;;;;;;4.27;3.97;;;23.00;15.10;;;;;;10414590;28;20234;-73
2021/04/28 17:18:32;;;;;;;4.47;3.67;;;22.90;15.20;;;;;;10410118;28;20245;-73
2021/04/28 17:23:35;;;;;;;3.80;3.40;;;22.90;15.20;;;;;;10404774;28;20773;-74
2021/04/28 17:28:38;;;;;;;4.40;3.07;;;22.90;15.10;;;;;;10397346;28;20317;-73
2021/04/28 17:33:43;;;;;;;3.30;2.80;;;22.80;15.20;;;;;;10415996;28;20313;-74
2021/04/28 17:38:46;;;;;;;3.40;3.00;;;22.70;15.10;;;;;;10398129;28;20236;-74
2021/04/28 17:43:48;;;;;;;3.90;2.67;;;22.70;15.20;;;;;;10415203;28;20229;-74
2021/04/28 17:48:51;;;;;;;4.77;2.80;;;22.60;15.20;;;;;;10392903;28;20222;-73
2021/04/28 17:53:54;;;;;;;3.37;2.73;;;22.50;15.30;;;;;;10391698;28;20226;-73
2021/04/28 17:58:56;;;;;;;3.67;3.20;;;22.40;15.40;;;;;;10387312;28;20436;-73
2021/04/28 18:03:58;;;;;;;3.40;3.10;;;22.30;15.60;;;;;;10405575;28;20221;-74
2021/04/28 18:09:02;;;;;;;4.30;3.50;;;22.20;15.60;;;;;;10416941;28;20217;-73
2021/04/28 18:14:04;;;;;;;3.27;2.97;;;22.10;16.20;;;;;;10399211;28;20239;-74
2021/04/28 18:19:06;;;;;;;3.67;3.37;;;21.90;16.20;;;;;;10405087;28;21021;-74
2021/04/28 18:24:11;;;;;;;4.10;3.70;;;21.80;16.40;;;;;;10404327;28;20308;-73
2021/04/28 18:29:14;;;;;;;3.37;3.07;;;21.70;16.30;;;;;;10402119;28;20232;-74
2021/04/28 18:34:16;;;;;;;4.63;3.30;;;21.60;16.20;;;;;;10406993;28;20678;-73
2021/04/28 18:39:19;;;;;;;2.93;2.63;;;21.40;16.10;;;;;;10400045;28;20309;-73
2021/04/28 18:44:21;;;;;;;3.47;2.80;;;21.30;16.00;;;;;;10406694;28;20324;-73
2021/04/28 18:49:23;;;;;;;2.93;2.60;;;21.30;16.00;;;;;;10405846;28;20308;-74
2021/04/28 18:54:26;;;;;;;4.50;2.50;;;21.10;15.90;;;;;;10395934;28;20314;-73
2021/04/28 18:59:29;;;;;;;3.13;2.90;;;21.10;16.10;;;;;;10388283;28;20803;-74
2021/04/28 19:04:31;;;;;;;2.43;2.23;;;20.90;16.30;;;;;;10389650;28;20313;-74
2021/04/28 19:09:34;;;;;;;3.90;2.70;;;20.80;16.30;;;;;;10408526;28;20811;-75
2021/04/28 19:14:37;;;;;;;4.73;3.03;;;20.80;16.80;;;;;;10405055;28;20279;-74
2021/04/28 19:19:39;;;;;;;2.73;2.53;;;20.60;16.60;;;;;;10396360;28;20288;-74
2021/04/28 19:24:43;;;;;;;2.93;2.67;;;20.50;16.80;;;;;;10400423;28;20712;-73
2021/04/28 19:29:45;;;;;;;3.40;3.10;;;20.40;16.90;;;;;;10388669;28;20234;-74
2021/04/28 19:34:48;;;;;;;3.70;3.33;;;20.30;16.90;;;;;;10402044;28;20217;-74
2021/04/28 19:39:51;;;;;;;5.50;4.23;;;20.20;17.00;;;;;;10396738;28;20254;-74
2021/04/28 19:44:53;;;;;;;5.27;4.77;;;20.00;17.20;;;;;;10393182;28;20283;-74
2021/04/28 19:49:56;;;;;;;6.50;5.40;;;19.90;17.20;;;;;;10396149;28;20325;-74
2021/04/28 19:54:59;;;;;;;6.50;5.90;;;19.80;17.10;;;;;;10410905;28;20249;-74
2021/04/28 20:00:02;;;;;;;9.63;8.63;;;19.60;17.30;;;;;;10395863;28;20256;-74
2021/04/28 20:05:06;;;;;;;7.83;6.03;;;19.30;17.30;;;;;;10396584;28;20291;-75
2021/04/28 20:10:10;;;;;;;6.43;5.80;;;19.10;17.60;;;;;;10401585;28;20226;-75
2021/04/28 20:15:13;;;;;;;5.30;4.60;;;18.90;17.90;;;;;;10409757;28;20304;-74
2021/04/28 20:20:16;;;;;;;5.27;4.53;;;18.80;17.80;;;;;;10392928;28;20228;-75
2021/04/28 20:25:19;;;;;;;5.20;4.43;;;18.70;18.00;;;;;;10402017;28;20320;-75
2021/04/28 20:30:22;;;;;;;5.07;4.50;;;18.50;18.00;;;;;;10389489;28;20253;-75
2021/04/28 20:35:24;;;;;;;4.33;3.70;;;18.40;18.10;;;;;;10393651;28;20659;-75
2021/04/28 20:40:27;;;;;;;5.10;4.53;;;18.30;18.10;;;;;;10407306;28;20312;-75
2021/04/28 20:45:30;;;;;;;5.70;4.23;;;18.30;18.30;;;;;;10413979;28;20631;-75
2021/04/28 20:50:32;;;;;;;5.30;4.80;;;18.20;18.30;;;;;;10408002;28;20257;-75
2021/04/28 20:55:35;;;;;;;6.13;5.00;;;18.20;18.50;;;;;;10403464;28;20257;-75
2021/04/28 21:00:37;;;;;;;6.63;5.93;;;18.10;18.70;;;;;;10408401;28;20749;-75
2021/04/28 21:05:40;;;;;;;5.97;5.33;;;18.00;18.60;;;;;;10406830;28;20256;-75
2021/04/28 21:10:43;;;;;;;7.43;5.80;;;17.90;18.50;;;;;;10408569;28;20257;-75
2021/04/28 21:15:45;;;;;;;8.80;5.83;;;17.80;18.70;;;;;;10408110;28;20651;-75
2021/04/28 21:20:47;;;;;;;6.90;6.00;;;17.60;18.50;;;;;;10408155;28;20224;-75
2021/04/28 21:25:51;;;;;;;7.27;5.90;;;17.20;18.60;;;;;;10407769;28;20291;-75
2021/04/28 21:30:53;;;;;;;9.13;5.80;;;16.90;19.00;;;;;;10407059;28;20257;-76
2021/04/28 21:35:55;;;;;;;7.77;5.37;;;16.60;19.10;;;;;;10409604;28;20287;-75
2021/04/28 21:40:59;;;;;;;7.60;5.50;;;16.50;19.20;;;;;;10405867;28;20348;-75
2021/04/28 21:46:02;;;;;;;6.20;5.30;;;16.30;19.50;;;;;;10395954;28;20222;-75
2021/04/28 21:51:04;;;;;;;6.07;5.43;;;16.20;19.40;;;;;;10393599;28;20222;-75
2021/04/28 21:56:08;;;;;;;7.57;5.20;;;16.00;19.60;;;;;;10410997;28;20265;-75
2021/04/28 22:01:10;;;;;;;8.53;5.40;;;15.80;19.90;;;;;;10407180;28;20304;-75
2021/04/28 22:06:12;;;;;;;4.70;4.23;;;15.70;20.00;;;;;;10400549;28;20256;-75
2021/04/28 22:11:15;;;;;;;6.80;4.70;;;15.60;19.90;;;;;;10406901;28;20312;-75
2021/04/28 22:16:17;;;;;;;5.63;4.80;;;15.50;20.30;;;;;;10410264;28;20388;-75
2021/04/28 22:21:19;;;;;;;6.17;4.93;;;15.50;21.00;;;;;;10413557;28;20321;-75
2021/04/28 22:26:22;;;;;;;6.53;5.30;;;15.40;20.30;;;;;;10410192;28;20351;-74
2021/04/28 22:31:25;;;;;;;5.70;5.03;;;15.40;20.80;;;;;;10408096;28;20231;-76
2021/04/28 22:36:27;;;;;;;7.93;6.43;;;15.30;20.70;;;;;;10412839;28;20731;-75
2021/04/28 22:41:30;;;;;;;7.93;5.67;;;15.30;20.90;;;;;;10403513;28;20269;-75
2021/04/28 22:46:32;;;;;;;5.17;4.63;;;15.30;21.10;;;;;;10405878;28;20301;-75
2021/04/28 22:51:35;;;;;;;6.13;5.53;;;15.30;20.90;;;;;;10400807;28;20245;-75
2021/04/28 22:56:38;;;;;;;5.47;4.97;;;15.30;21.30;;;;;;10412016;28;20304;-75
2021/04/28 23:01:40;;;;;;;6.10;4.57;;;15.30;21.50;;;;;;10395628;28;20304;-75
2021/04/28 23:06:43;;;;;;;6.07;4.10;;;15.30;21.30;;;;;;10405053;28;20279;-74
2021/04/28 23:11:46;;;;;;;9.13;5.00;;;15.30;21.40;;;;;;10409172;28;20253;-74
2021/04/28 23:16:48;;;;;;;7.43;5.47;;;15.30;21.80;;;;;;10409389;28;20316;-74
2021/04/28 23:21:50;;;;;;;6.53;5.20;;;15.20;21.50;;;;;;10408990;28;20713;-74
2021/04/28 23:26:53;;;;;;;5.90;4.67;;;15.20;21.20;;;;;;10408586;28;20257;-74
2021/04/28 23:31:55;;;;;;;7.53;5.23;;;15.20;21.40;;;;;;10408978;28;20248;-74
2021/04/28 23:36:59;;;;;;;6.13;5.30;;;15.30;21.60;;;;;;10408414;28;20240;-74
2021/04/28 23:42:02;;;;;;;7.90;5.47;;;15.50;21.70;;;;;;10408841;28;20241;-74
2021/04/28 23:47:05;;;;;;;5.97;5.37;;;15.60;21.80;;;;;;10408225;28;20249;-75
2021/04/28 23:52:08;;;;;;;6.83;5.60;;;15.80;21.60;;;;;;10408724;28;20241;-74
2021/04/28 23:57:12;;;;;;;6.93;5.70;;;16.00;21.70;;;;;;10409424;28;20607;-74
